createdAt,value
2023-05-14T05:06:08.398Z,14.47
2023-05-14T05:11:12.739Z,15.43
2023-05-14T05:16:15.924Z,14.10
2023-05-14T05:21:19.031Z,12.00
2023-05-14T05:26:23.676Z,11.97
2023-05-14T05:31:26.729Z,11.97
2023-05-14T05:36:29.946Z,11.30
2023-05-14T05:41:34.327Z,11.43
2023-05-14T05:46:37.503Z,11.67
2023-05-14T05:51:41.070Z,11.90
2023-05-14T05:56:45.516Z,11.53
2023-05-14T06:01:48.638Z,10.50
2023-05-14T06:06:51.690Z,10.97
2023-05-14T06:11:56.417Z,9.27
2023-05-14T06:16:59.631Z,10.70
2023-05-14T06:22:02.955Z,10.40
2023-05-14T06:27:08.095Z,10.23
2023-05-14T06:32:14.133Z,10.80
2023-05-14T06:37:17.669Z,10.17
2023-05-14T06:42:22.339Z,9.07
2023-05-14T06:47:26.218Z,8.75
2023-05-14T06:52:29.511Z,8.60
2023-05-14T06:57:35.297Z,7.97
2023-05-14T07:02:38.388Z,8.10
2023-05-14T07:07:41.421Z,8.90
2023-05-14T07:12:46.250Z,7.53
2023-05-14T07:17:49.531Z,5.57
2023-05-14T07:22:53.852Z,6.67
2023-05-14T07:27:58.233Z,5.55
2023-05-14T07:33:01.282Z,6.28
2023-05-14T07:38:05.747Z,6.82
2023-05-14T07:43:11.336Z,6.32
2023-05-14T07:48:15.130Z,6.65
2023-05-14T07:53:18.635Z,4.78
2023-05-14T07:58:23.819Z,5.30
2023-05-14T08:03:27.012Z,5.43
2023-05-14T08:08:30.232Z,5.10
2023-05-14T08:13:34.978Z,5.88
2023-05-14T08:18:38.279Z,5.30
2023-05-14T08:23:41.783Z,5.05
2023-05-14T08:28:46.137Z,5.30
2023-05-14T08:33:49.585Z,5.30
2023-05-14T08:38:52.675Z,5.78
2023-05-14T08:44:07.576Z,6.68
2023-05-14T08:49:21.095Z,5.82
2023-05-14T08:54:26.209Z,4.50
2023-05-14T08:59:31.123Z,4.05
2023-05-14T09:04:35.293Z,5.97
2023-05-14T09:09:39.026Z,4.82
2023-05-14T09:14:43.791Z,5.63
2023-05-14T09:19:49.069Z,4.35
2023-05-14T09:25:09.714Z,4.22
2023-05-14T09:30:20.573Z,4.90
2023-05-14T09:35:26.584Z,5.70
2023-05-14T09:40:30.142Z,5.93
2023-05-14T09:45:36.540Z,5.40
2023-05-14T09:50:43.193Z,4.83
2023-05-14T09:55:46.829Z,3.87
2023-05-14T10:00:52.254Z,4.50
2023-05-14T10:05:57.395Z,3.83
2023-05-14T10:11:04.390Z,4.10
2023-05-14T10:16:13.796Z,4.03
2023-05-14T10:21:21.801Z,3.60
2023-05-14T10:26:26.206Z,4.28
2023-05-14T10:31:49.580Z,3.75
2023-05-14T10:36:52.751Z,3.60
2023-05-14T10:41:55.903Z,3.70
2023-05-14T10:47:01.042Z,3.67
2023-05-14T10:52:04.271Z,3.47
2023-05-14T10:57:12.774Z,3.63
2023-05-14T11:02:22.741Z,3.30
2023-05-14T11:07:30.597Z,3.75
2023-05-14T11:12:34.112Z,3.30
2023-05-14T11:17:40.282Z,3.15
2023-05-14T11:22:44.165Z,3.30
2023-05-14T11:27:48.004Z,3.38
2023-05-14T11:32:52.876Z,3.45
2023-05-14T11:37:56.830Z,4.25
2023-05-14T11:43:01.202Z,3.50
2023-05-14T11:48:13.054Z,3.45
2023-05-14T11:53:19.863Z,3.80
2023-05-14T11:58:23.045Z,3.60
2023-05-14T12:03:30.144Z,3.72
2023-05-14T12:08:34.250Z,3.38
2023-05-14T12:13:38.318Z,3.20
2023-05-14T12:18:44.262Z,2.88
2023-05-14T12:23:47.519Z,3.13
2023-05-14T12:28:50.732Z,2.90
2023-05-14T12:33:55.543Z,3.00
2023-05-14T12:39:01.134Z,2.90
2023-05-14T12:44:06.086Z,2.70
2023-05-14T12:49:11.122Z,2.53
2023-05-14T12:54:15.762Z,2.70
2023-05-14T12:59:18.993Z,2.42
2023-05-14T13:04:23.792Z,2.60
2023-05-14T13:09:28.157Z,2.40
2023-05-14T13:14:31.601Z,2.65
2023-05-14T13:19:36.163Z,3.28
2023-05-14T13:24:39.752Z,2.58
2023-05-14T13:29:43.289Z,2.50
2023-05-14T13:34:48.184Z,2.40
2023-05-14T13:39:51.698Z,2.55
2023-05-14T13:44:56.277Z,2.67
2023-05-14T13:50:01.091Z,2.65
2023-05-14T13:55:04.894Z,2.75
2023-05-14T14:00:09.851Z,2.42
2023-05-14T14:05:14.685Z,2.95
2023-05-14T14:10:18.471Z,2.97
2023-05-14T14:15:21.736Z,2.60
2023-05-14T14:20:26.550Z,2.60
2023-05-14T14:25:29.737Z,2.35
2023-05-14T14:30:33.848Z,2.20
2023-05-14T14:35:38.511Z,2.88
2023-05-14T14:40:42.042Z,3.05
2023-05-14T14:45:48.180Z,2.92
2023-05-14T14:50:54.171Z,4.00
2023-05-14T14:55:58.196Z,3.08
2023-05-14T15:01:01.979Z,3.17
2023-05-14T15:06:06.786Z,11.02
2023-05-14T15:11:10.244Z,4.22
2023-05-14T15:16:13.765Z,5.37
2023-05-14T15:21:18.315Z,5.73
2023-05-14T15:26:21.906Z,5.77
2023-05-14T15:31:25.421Z,6.87
2023-05-14T15:36:29.957Z,6.00
2023-05-14T15:41:34.329Z,6.30
2023-05-14T15:46:38.201Z,5.67
2023-05-14T15:51:43.032Z,4.80
2023-05-14T15:56:46.502Z,4.57
2023-05-14T16:01:50.184Z,4.57
2023-05-14T16:06:54.989Z,2.50
2023-05-14T16:11:58.222Z,2.80
2023-05-14T16:17:02.361Z,4.27
2023-05-14T16:22:07.015Z,3.53
2023-05-14T16:27:10.164Z,1.80
2023-05-14T16:32:13.650Z,1.80
2023-05-14T16:37:19.807Z,3.73
2023-05-14T16:42:23.233Z,2.33
2023-05-14T16:47:26.525Z,2.60
2023-05-14T16:52:31.582Z,3.67
2023-05-14T16:57:35.174Z,3.07
2023-05-14T17:02:38.327Z,3.07
2023-05-14T17:07:43.044Z,2.90
2023-05-14T17:12:46.196Z,2.93
2023-05-14T17:17:49.216Z,2.70
2023-05-14T17:22:53.802Z,3.17
2023-05-14T17:27:56.849Z,3.00
2023-05-14T17:32:59.997Z,2.80
2023-05-14T17:38:04.510Z,3.17
2023-05-14T17:43:08.408Z,3.70
2023-05-14T17:48:11.885Z,3.23
2023-05-14T17:53:16.401Z,3.27
2023-05-14T17:58:19.530Z,3.50
2023-05-14T18:03:22.583Z,3.57
2023-05-14T18:08:27.042Z,3.47
2023-05-14T18:13:30.099Z,4.07
2023-05-14T18:18:33.184Z,3.60
2023-05-14T18:23:37.568Z,4.00
2023-05-14T18:28:40.922Z,4.30
2023-05-14T18:33:44.038Z,4.00
2023-05-14T18:38:48.459Z,4.10
2023-05-14T18:43:51.521Z,4.20
2023-05-14T18:48:54.600Z,4.13
2023-05-14T18:53:59.005Z,4.10
2023-05-14T18:59:02.034Z,4.60
2023-05-14T19:04:06.426Z,4.50
2023-05-14T19:09:11.193Z,4.70
2023-05-14T19:14:14.212Z,4.43
2023-05-14T19:19:17.321Z,4.70
2023-05-14T19:24:21.762Z,5.47
2023-05-14T19:29:24.866Z,6.33
2023-05-14T19:34:27.979Z,3.83
2023-05-14T19:39:32.593Z,4.00
2023-05-14T19:44:36.052Z,4.00
2023-05-14T19:49:39.085Z,3.50
2023-05-14T19:54:43.446Z,3.93
2023-05-14T19:59:46.544Z,4.07
2023-05-14T20:04:49.972Z,4.07
2023-05-14T20:09:54.334Z,4.10
2023-05-14T20:14:57.360Z,3.93
2023-05-14T20:20:00.727Z,4.20
2023-05-14T20:25:05.728Z,3.93
2023-05-14T20:30:09.748Z,4.30
2023-05-14T20:35:12.797Z,3.70
2023-05-14T20:40:17.214Z,3.70
2023-05-14T20:45:20.274Z,4.87
2023-05-14T20:50:23.442Z,5.00
2023-05-14T20:55:28.169Z,4.07
2023-05-14T21:00:32.499Z,4.57
2023-05-14T21:05:36.068Z,4.60
2023-05-14T21:10:40.890Z,5.60
2023-05-14T21:15:44.040Z,4.93
2023-05-14T21:20:47.449Z,4.73
2023-05-14T21:25:54.580Z,7.60
2023-05-14T21:30:57.990Z,4.60
2023-05-14T21:36:01.396Z,4.67
2023-05-14T21:41:06.282Z,8.17
2023-05-14T21:46:10.251Z,5.30
2023-05-14T21:51:13.375Z,6.67
2023-05-14T21:56:18.311Z,4.80
2023-05-14T22:01:21.961Z,4.57
2023-05-14T22:06:25.168Z,5.80
2023-05-14T22:11:29.620Z,4.70
2023-05-14T22:16:33.382Z,5.00
2023-05-14T22:21:36.477Z,5.00
2023-05-14T22:26:41.370Z,5.50
2023-05-14T22:31:44.588Z,4.93
2023-05-14T22:36:48.252Z,5.30
2023-05-14T22:41:55.384Z,5.10
2023-05-14T22:46:59.136Z,5.30
2023-05-14T22:52:02.326Z,4.50
2023-05-14T22:57:07.531Z,4.67
2023-05-14T23:02:11.309Z,4.63
2023-05-14T23:07:15.198Z,4.97
2023-05-14T23:12:19.945Z,4.87
2023-05-14T23:17:23.102Z,4.60
2023-05-14T23:22:26.726Z,4.70
2023-05-14T23:27:31.190Z,5.83
2023-05-14T23:32:34.380Z,5.10
2023-05-14T23:37:41.880Z,5.40
2023-05-14T23:42:46.871Z,5.00
2023-05-14T23:47:50.422Z,4.73
2023-05-14T23:52:54.472Z,5.43
2023-05-14T23:57:59.379Z,5.40
